sensor_id;sensor_type;location;lat;lon;timestamp;P1;durP1;ratioP1;P2;durP2;ratioP2
948;SDS011;461;51.436;7.312;2023-09-08T00:02:07;11.53;;;7.60;;
948;SDS011;461;51.436;7.312;2023-09-08T00:04:34;9.10;;;7.27;;
948;SDS011;461;51.436;7.312;2023-09-08T00:07:00;11.30;;;7.70;;
948;SDS011;461;51.436;7.312;2023-09-08T00:09:26;15.00;;;7.03;;
948;SDS011;461;51.436;7.312;2023-09-08T00:11:53;9.73;;;7.03;;
948;SDS011;461;51.436;7.312;2023-09-08T00:14:21;17.80;;;8.07;;
948;SDS011;461;51.436;7.312;2023-09-08T00:16:47;10.73;;;7.00;;
948;SDS011;461;51.436;7.312;2023-09-08T00:19:13;10.70;;;7.33;;
948;SDS011;461;51.436;7.312;2023-09-08T00:21:39;10.10;;;7.70;;
948;SDS011;461;51.436;7.312;2023-09-08T00:24:08;8.30;;;7.03;;
948;SDS011;461;51.436;7.312;2023-09-08T00:26:34;11.30;;;7.70;;
948;SDS011;461;51.436;7.312;2023-09-08T00:29:00;9.90;;;7.37;;
948;SDS011;461;51.436;7.312;2023-09-08T00:31:26;8.73;;;7.13;;
948;SDS011;461;51.436;7.312;2023-09-08T00:33:52;11.83;;;8.37;;
948;SDS011;461;51.436;7.312;2023-09-08T00:36:18;11.50;;;7.40;;
948;SDS011;461;51.436;7.312;2023-09-08T00:38:44;9.37;;;7.97;;
948;SDS011;461;51.436;7.312;2023-09-08T00:41:10;8.40;;;7.30;;
948;SDS011;461;51.436;7.312;2023-09-08T00:43:36;11.97;;;8.83;;
948;SDS011;461;51.436;7.312;2023-09-08T00:46:03;11.40;;;9.70;;
948;SDS011;461;51.436;7.312;2023-09-08T00:48:29;10.10;;;7.20;;
948;SDS011;461;51.436;7.312;2023-09-08T00:50:56;8.97;;;6.63;;
948;SDS011;461;51.436;7.312;2023-09-08T00:53:22;12.30;;;7.57;;
948;SDS011;461;51.436;7.312;2023-09-08T00:55:49;14.90;;;8.33;;
948;SDS011;461;51.436;7.312;2023-09-08T00:58:15;8.60;;;7.33;;
948;SDS011;461;51.436;7.312;2023-09-08T01:00:41;11.33;;;7.30;;
948;SDS011;461;51.436;7.312;2023-09-08T01:03:07;10.40;;;8.20;;
948;SDS011;461;51.436;7.312;2023-09-08T01:05:33;10.03;;;8.30;;
948;SDS011;461;51.436;7.312;2023-09-08T01:08:00;10.83;;;8.37;;
948;SDS011;461;51.436;7.312;2023-09-08T01:10:26;9.33;;;8.13;;
948;SDS011;461;51.436;7.312;2023-09-08T01:12:52;12.00;;;9.80;;
948;SDS011;461;51.436;7.312;2023-09-08T01:15:18;11.97;;;9.40;;
948;SDS011;461;51.436;7.312;2023-09-08T01:17:45;13.17;;;10.23;;
948;SDS011;461;51.436;7.312;2023-09-08T01:25:22;11.33;;;8.20;;
948;SDS011;461;51.436;7.312;2023-09-08T01:27:50;9.57;;;8.57;;
948;SDS011;461;51.436;7.312;2023-09-08T01:30:16;10.47;;;8.37;;
948;SDS011;461;51.436;7.312;2023-09-08T01:32:43;10.73;;;8.60;;
948;SDS011;461;51.436;7.312;2023-09-08T01:35:09;10.57;;;9.47;;
948;SDS011;461;51.436;7.312;2023-09-08T01:37:39;11.80;;;10.20;;
948;SDS011;461;51.436;7.312;2023-09-08T01:40:06;14.40;;;10.20;;
948;SDS011;461;51.436;7.312;2023-09-08T01:42:32;13.93;;;10.53;;
948;SDS011;461;51.436;7.312;2023-09-08T01:44:58;13.10;;;10.07;;
948;SDS011;461;51.436;7.312;2023-09-08T01:47:24;14.40;;;11.50;;
948;SDS011;461;51.436;7.312;2023-09-08T01:49:50;16.60;;;13.90;;
948;SDS011;461;51.436;7.312;2023-09-08T01:52:16;13.70;;;11.53;;
948;SDS011;461;51.436;7.312;2023-09-08T01:54:42;12.70;;;10.57;;
948;SDS011;461;51.436;7.312;2023-09-08T01:57:08;11.13;;;9.80;;
948;SDS011;461;51.436;7.312;2023-09-08T01:59:34;15.13;;;10.37;;
948;SDS011;461;51.436;7.312;2023-09-08T02:02:02;15.70;;;9.90;;
948;SDS011;461;51.436;7.312;2023-09-08T02:18:08;14.30;;;10.90;;
948;SDS011;461;51.436;7.312;2023-09-08T06:50:55;18.03;;;9.40;;
948;SDS011;461;51.436;7.312;2023-09-08T06:53:22;12.10;;;8.43;;
948;SDS011;461;51.436;7.312;2023-09-08T06:55:49;11.83;;;7.70;;
948;SDS011;461;51.436;7.312;2023-09-08T06:58:24;13.50;;;7.80;;
948;SDS011;461;51.436;7.312;2023-09-08T07:00:52;11.63;;;8.00;;
948;SDS011;461;51.436;7.312;2023-09-08T07:03:20;13.47;;;8.10;;
948;SDS011;461;51.436;7.312;2023-09-08T07:05:49;7.80;;;6.27;;
948;SDS011;461;51.436;7.312;2023-09-08T07:08:16;10.90;;;5.90;;
948;SDS011;461;51.436;7.312;2023-09-08T07:10:43;12.50;;;7.00;;
948;SDS011;461;51.436;7.312;2023-09-08T07:13:09;12.37;;;6.80;;
948;SDS011;461;51.436;7.312;2023-09-08T07:15:35;8.40;;;7.10;;
948;SDS011;461;51.436;7.312;2023-09-08T07:18:02;12.73;;;7.00;;
948;SDS011;461;51.436;7.312;2023-09-08T07:20:28;11.30;;;6.70;;
948;SDS011;461;51.436;7.312;2023-09-08T07:22:55;10.80;;;7.10;;
948;SDS011;461;51.436;7.312;2023-09-08T07:25:21;10.93;;;6.23;;
948;SDS011;461;51.436;7.312;2023-09-08T07:27:47;8.60;;;7.13;;
948;SDS011;461;51.436;7.312;2023-09-08T07:30:17;9.53;;;6.60;;
948;SDS011;461;51.436;7.312;2023-09-08T07:32:43;10.43;;;7.67;;
948;SDS011;461;51.436;7.312;2023-09-08T07:35:09;10.13;;;7.17;;
948;SDS011;461;51.436;7.312;2023-09-08T07:37:39;10.20;;;6.73;;
948;SDS011;461;51.436;7.312;2023-09-08T07:40:06;11.17;;;5.90;;
948;SDS011;461;51.436;7.312;2023-09-08T07:42:33;10.87;;;6.50;;
948;SDS011;461;51.436;7.312;2023-09-08T07:44:59;8.07;;;6.10;;
948;SDS011;461;51.436;7.312;2023-09-08T07:47:25;15.10;;;6.67;;
948;SDS011;461;51.436;7.312;2023-09-08T07:49:52;9.30;;;5.90;;
948;SDS011;461;51.436;7.312;2023-09-08T07:52:38;6.40;;;5.80;;
948;SDS011;461;51.436;7.312;2023-09-08T07:55:04;7.70;;;5.87;;
948;SDS011;461;51.436;7.312;2023-09-08T07:57:30;6.80;;;5.60;;
948;SDS011;461;51.436;7.312;2023-09-08T07:59:56;8.20;;;5.93;;
948;SDS011;461;51.436;7.312;2023-09-08T08:02:23;9.60;;;6.00;;
948;SDS011;461;51.436;7.312;2023-09-08T13:50:50;4.33;;;3.93;;
948;SDS011;461;51.436;7.312;2023-09-08T13:53:17;4.83;;;4.43;;
948;SDS011;461;51.436;7.312;2023-09-08T13:55:43;5.70;;;4.43;;
948;SDS011;461;51.436;7.312;2023-09-08T13:58:09;4.20;;;3.80;;
948;SDS011;461;51.436;7.312;2023-09-08T14:00:36;6.13;;;4.80;;
948;SDS011;461;51.436;7.312;2023-09-08T14:03:03;4.87;;;4.47;;
948;SDS011;461;51.436;7.312;2023-09-08T14:05:33;4.70;;;4.30;;
948;SDS011;461;51.436;7.312;2023-09-08T14:07:59;6.77;;;4.00;;
948;SDS011;461;51.436;7.312;2023-09-08T14:10:25;5.67;;;3.97;;
948;SDS011;461;51.436;7.312;2023-09-08T14:12:51;5.07;;;4.20;;
948;SDS011;461;51.436;7.312;2023-09-08T14:15:17;4.67;;;4.23;;
948;SDS011;461;51.436;7.312;2023-09-08T14:17:43;8.07;;;4.70;;
948;SDS011;461;51.436;7.312;2023-09-08T14:20:10;5.67;;;4.80;;
948;SDS011;461;51.436;7.312;2023-09-08T14:22:36;4.53;;;4.13;;
948;SDS011;461;51.436;7.312;2023-09-08T14:25:03;4.67;;;4.20;;
948;SDS011;461;51.436;7.312;2023-09-08T14:27:29;4.23;;;3.83;;
948;SDS011;461;51.436;7.312;2023-09-08T14:29:59;5.33;;;4.47;;
948;SDS011;461;51.436;7.312;2023-09-08T14:32:25;4.57;;;4.20;;
948;SDS011;461;51.436;7.312;2023-09-08T14:34:53;5.83;;;4.57;;
948;SDS011;461;51.436;7.312;2023-09-08T14:37:21;4.43;;;4.03;;
948;SDS011;461;51.436;7.312;2023-09-08T14:39:47;5.40;;;4.13;;
948;SDS011;461;51.436;7.312;2023-09-08T14:42:13;5.40;;;4.90;;
948;SDS011;461;51.436;7.312;2023-09-08T14:44:40;4.70;;;4.20;;
948;SDS011;461;51.436;7.312;2023-09-08T14:47:07;5.87;;;4.20;;
948;SDS011;461;51.436;7.312;2023-09-08T14:49:48;10.20;;;4.37;;
948;SDS011;461;51.436;7.312;2023-09-08T14:52:14;4.70;;;3.80;;
948;SDS011;461;51.436;7.312;2023-09-08T14:54:41;5.63;;;4.30;;
948;SDS011;461;51.436;7.312;2023-09-08T14:57:08;6.80;;;4.73;;
948;SDS011;461;51.436;7.312;2023-09-08T14:59:34;4.50;;;4.10;;
948;SDS011;461;51.436;7.312;2023-09-08T15:02:00;4.33;;;3.93;;
948;SDS011;461;51.436;7.312;2023-09-08T15:04:26;5.03;;;4.07;;
948;SDS011;461;51.436;7.312;2023-09-08T15:06:52;5.13;;;4.10;;
948;SDS011;461;51.436;7.312;2023-09-08T15:09:18;5.07;;;4.43;;
948;SDS011;461;51.436;7.312;2023-09-08T15:11:45;5.53;;;4.50;;
948;SDS011;461;51.436;7.312;2023-09-08T15:14:11;7.20;;;4.40;;
948;SDS011;461;51.436;7.312;2023-09-08T15:16:37;4.13;;;3.73;;
948;SDS011;461;51.436;7.312;2023-09-08T15:19:03;5.17;;;4.27;;
948;SDS011;461;51.436;7.312;2023-09-08T15:21:29;6.43;;;4.17;;
948;SDS011;461;51.436;7.312;2023-09-08T15:23:58;5.23;;;4.40;;
948;SDS011;461;51.436;7.312;2023-09-08T15:26:24;7.13;;;4.10;;
948;SDS011;461;51.436;7.312;2023-09-08T15:28:50;5.57;;;4.80;;
948;SDS011;461;51.436;7.312;2023-09-08T15:31:16;5.00;;;4.10;;
948;SDS011;461;51.436;7.312;2023-09-08T15:33:42;5.53;;;4.50;;
948;SDS011;461;51.436;7.312;2023-09-08T15:36:11;16.40;;;4.60;;
948;SDS011;461;51.436;7.312;2023-09-08T15:38:37;4.33;;;3.93;;
948;SDS011;461;51.436;7.312;2023-09-08T15:43:32;5.80;;;4.70;;
948;SDS011;461;51.436;7.312;2023-09-08T15:46:09;4.77;;;4.37;;
948;SDS011;461;51.436;7.312;2023-09-08T15:48:35;7.33;;;4.63;;
948;SDS011;461;51.436;7.312;2023-09-08T15:51:02;4.90;;;4.40;;
948;SDS011;461;51.436;7.312;2023-09-08T15:53:28;6.93;;;4.13;;
948;SDS011;461;51.436;7.312;2023-09-08T15:55:54;7.40;;;4.30;;
948;SDS011;461;51.436;7.312;2023-09-08T15:58:21;7.60;;;4.30;;
948;SDS011;461;51.436;7.312;2023-09-08T16:00:48;5.73;;;4.30;;
948;SDS011;461;51.436;7.312;2023-09-08T16:03:14;4.43;;;3.90;;
948;SDS011;461;51.436;7.312;2023-09-08T16:05:42;5.30;;;4.80;;
948;SDS011;461;51.436;7.312;2023-09-08T16:08:08;6.13;;;4.20;;
948;SDS011;461;51.436;7.312;2023-09-08T16:10:34;4.80;;;4.30;;
948;SDS011;461;51.436;7.312;2023-09-08T16:13:00;4.20;;;3.80;;
948;SDS011;461;51.436;7.312;2023-09-08T16:15:26;5.63;;;4.87;;
948;SDS011;461;51.436;7.312;2023-09-08T16:17:53;4.80;;;4.20;;
948;SDS011;461;51.436;7.312;2023-09-08T16:20:20;4.67;;;4.27;;
948;SDS011;461;51.436;7.312;2023-09-08T16:22:47;4.90;;;4.40;;
948;SDS011;461;51.436;7.312;2023-09-08T16:25:13;4.97;;;4.47;;
948;SDS011;461;51.436;7.312;2023-09-08T16:27:39;5.03;;;4.43;;
948;SDS011;461;51.436;7.312;2023-09-08T16:30:05;5.67;;;4.53;;
948;SDS011;461;51.436;7.312;2023-09-08T16:32:32;5.57;;;4.60;;
948;SDS011;461;51.436;7.312;2023-09-08T16:34:58;4.93;;;4.43;;
948;SDS011;461;51.436;7.312;2023-09-08T16:37:26;4.87;;;4.40;;
948;SDS011;461;51.436;7.312;2023-09-08T16:39:52;5.30;;;4.37;;
948;SDS011;461;51.436;7.312;2023-09-08T16:42:18;4.97;;;4.47;;
948;SDS011;461;51.436;7.312;2023-09-08T16:44:45;4.30;;;3.90;;
948;SDS011;461;51.436;7.312;2023-09-08T16:47:12;5.40;;;4.10;;
948;SDS011;461;51.436;7.312;2023-09-08T16:49:39;5.07;;;4.57;;
948;SDS011;461;51.436;7.312;2023-09-08T16:52:06;5.47;;;4.77;;
948;SDS011;461;51.436;7.312;2023-09-08T16:54:32;5.57;;;4.33;;
948;SDS011;461;51.436;7.312;2023-09-08T16:56:59;7.67;;;4.30;;
948;SDS011;461;51.436;7.312;2023-09-08T16:59:25;4.57;;;4.17;;
948;SDS011;461;51.436;7.312;2023-09-08T17:01:51;4.77;;;4.27;;
948;SDS011;461;51.436;7.312;2023-09-08T17:04:17;5.93;;;5.33;;
948;SDS011;461;51.436;7.312;2023-09-08T17:06:44;4.80;;;4.30;;
948;SDS011;461;51.436;7.312;2023-09-08T17:09:12;5.13;;;4.60;;
948;SDS011;461;51.436;7.312;2023-09-08T17:11:42;7.87;;;5.17;;
948;SDS011;461;51.436;7.312;2023-09-08T17:14:08;6.03;;;4.57;;
948;SDS011;461;51.436;7.312;2023-09-08T17:16:34;6.10;;;4.33;;
948;SDS011;461;51.436;7.312;2023-09-08T17:19:00;5.90;;;4.80;;
948;SDS011;461;51.436;7.312;2023-09-08T17:21:26;5.17;;;4.33;;
948;SDS011;461;51.436;7.312;2023-09-08T17:23:53;5.00;;;4.50;;
948;SDS011;461;51.436;7.312;2023-09-08T17:26:19;5.43;;;4.60;;
948;SDS011;461;51.436;7.312;2023-09-08T17:28:45;6.80;;;4.60;;
948;SDS011;461;51.436;7.312;2023-09-08T17:31:11;5.30;;;4.30;;
948;SDS011;461;51.436;7.312;2023-09-08T17:33:37;4.90;;;4.40;;
948;SDS011;461;51.436;7.312;2023-09-08T17:36:04;5.50;;;5.00;;
948;SDS011;461;51.436;7.312;2023-09-08T17:38:30;11.00;;;5.23;;
948;SDS011;461;51.436;7.312;2023-09-08T17:40:57;7.17;;;4.30;;
948;SDS011;461;51.436;7.312;2023-09-08T17:43:23;8.13;;;5.33;;
948;SDS011;461;51.436;7.312;2023-09-08T17:45:49;5.80;;;4.13;;
948;SDS011;461;51.436;7.312;2023-09-08T17:48:15;7.30;;;4.90;;
948;SDS011;461;51.436;7.312;2023-09-08T17:50:41;6.30;;;4.87;;
948;SDS011;461;51.436;7.312;2023-09-08T17:53:08;5.60;;;4.27;;
948;SDS011;461;51.436;7.312;2023-09-08T17:55:34;8.23;;;5.20;;
948;SDS011;461;51.436;7.312;2023-09-08T17:58:00;4.93;;;4.43;;
948;SDS011;461;51.436;7.312;2023-09-08T18:00:33;4.97;;;4.47;;
948;SDS011;461;51.436;7.312;2023-09-08T18:02:59;9.30;;;4.80;;
948;SDS011;461;51.436;7.312;2023-09-08T18:05:25;5.97;;;4.87;;
948;SDS011;461;51.436;7.312;2023-09-08T18:07:51;8.83;;;5.57;;
948;SDS011;461;51.436;7.312;2023-09-08T18:10:17;7.03;;;5.30;;
948;SDS011;461;51.436;7.312;2023-09-08T18:12:44;7.80;;;5.37;;
948;SDS011;461;51.436;7.312;2023-09-08T18:15:10;6.13;;;5.53;;
948;SDS011;461;51.436;7.312;2023-09-08T18:17:36;7.90;;;7.20;;
948;SDS011;461;51.436;7.312;2023-09-08T18:20:02;8.73;;;7.50;;
948;SDS011;461;51.436;7.312;2023-09-08T18:22:28;7.77;;;7.07;;
948;SDS011;461;51.436;7.312;2023-09-08T18:24:55;8.60;;;7.57;;
948;SDS011;461;51.436;7.312;2023-09-08T18:27:21;7.83;;;6.40;;
948;SDS011;461;51.436;7.312;2023-09-08T18:29:50;7.07;;;6.23;;
948;SDS011;461;51.436;7.312;2023-09-08T18:32:16;10.93;;;7.40;;
948;SDS011;461;51.436;7.312;2023-09-08T18:34:42;8.53;;;7.50;;
948;SDS011;461;51.436;7.312;2023-09-08T18:37:08;9.70;;;7.83;;
948;SDS011;461;51.436;7.312;2023-09-08T18:39:35;7.20;;;6.47;;
948;SDS011;461;51.436;7.312;2023-09-08T18:42:01;7.90;;;5.57;;
948;SDS011;461;51.436;7.312;2023-09-08T18:44:27;7.13;;;6.30;;
948;SDS011;461;51.436;7.312;2023-09-08T18:46:55;8.83;;;6.40;;
948;SDS011;461;51.436;7.312;2023-09-08T18:49:25;8.43;;;6.03;;
948;SDS011;461;51.436;7.312;2023-09-08T18:51:51;6.90;;;6.17;;
948;SDS011;461;51.436;7.312;2023-09-08T18:54:18;7.00;;;6.30;;
948;SDS011;461;51.436;7.312;2023-09-08T18:56:44;8.50;;;7.17;;
948;SDS011;461;51.436;7.312;2023-09-08T18:59:10;8.33;;;7.53;;
948;SDS011;461;51.436;7.312;2023-09-08T19:01:36;11.73;;;7.07;;
948;SDS011;461;51.436;7.312;2023-09-08T19:14:25;8.77;;;7.30;;
948;SDS011;461;51.436;7.312;2023-09-08T19:17:01;10.73;;;6.70;;
948;SDS011;461;51.436;7.312;2023-09-08T19:19:31;7.47;;;6.20;;
948;SDS011;461;51.436;7.312;2023-09-08T19:24:35;7.40;;;6.63;;
948;SDS011;461;51.436;7.312;2023-09-08T19:42:40;8.40;;;7.03;;
948;SDS011;461;51.436;7.312;2023-09-08T19:58:06;10.57;;;6.30;;
948;SDS011;461;51.436;7.312;2023-09-08T20:00:32;7.00;;;6.10;;
948;SDS011;461;51.436;7.312;2023-09-08T20:02:58;9.00;;;6.80;;
948;SDS011;461;51.436;7.312;2023-09-08T20:05:24;8.40;;;6.70;;
948;SDS011;461;51.436;7.312;2023-09-08T20:07:51;9.63;;;7.70;;
948;SDS011;461;51.436;7.312;2023-09-08T20:10:17;9.73;;;7.37;;
948;SDS011;461;51.436;7.312;2023-09-08T20:12:45;7.40;;;5.90;;
948;SDS011;461;51.436;7.312;2023-09-08T20:15:11;7.43;;;6.70;;
948;SDS011;461;51.436;7.312;2023-09-08T23:19:46;12.80;;;8.57;;
948;SDS011;461;51.436;7.312;2023-09-08T23:22:13;15.10;;;8.47;;
948;SDS011;461;51.436;7.312;2023-09-08T23:24:40;13.77;;;9.63;;
948;SDS011;461;51.436;7.312;2023-09-08T23:33:37;16.93;;;10.03;;
948;SDS011;461;51.436;7.312;2023-09-08T23:36:28;19.47;;;11.30;;
948;SDS011;461;51.436;7.312;2023-09-08T23:38:58;13.50;;;9.30;;
948;SDS011;461;51.436;7.312;2023-09-08T23:41:33;9.53;;;8.53;;
948;SDS011;461;51.436;7.312;2023-09-08T23:47:24;14.87;;;8.57;;
